Crosby, ND

4:25 AM CST on November 15, 2019 (GMT -0600)
Crosby

Weather History for KD50 - September, 2019

Change the Weather History Date:

Monday, September 16, 2019

  Actual Average (WUND) Record (WUND)
Temperature  
Mean Temperature 70 °F -  
Max Temperature 91 °F - - (-1)
Min Temperature 48 °F - - (-1)
Cooling Degree Days 4    
Growing Degree Days 20 (Base 50)    
Moisture  
Dew Point 58 °F    
Average Humidity 73    
Maximum Humidity 100    
Minimum Humidity 31    
Precipitation  
Precipitation 0.00 in - - ()
Sea Level Pressure  
Sea Level Pressure 29.69 in    
Wind  
Wind Speed 4 mph (ESE)    
Max Wind Speed 15 mph    
Max Gust Speed 21 mph    
Visibility 9 miles    
Events Fog    
Averages and records for this station are not official NWS values.
T = Trace of Precipitation, MM = Missing Value Source: NWS Daily Summary

Daily Weather History Graph

Daily Weather History Graph

Search for Another Location

Airport or City:

Astronomy

Sep. 16, 2019 Rise Set
Actual Time 7:30 AM CDT 8:04 PM CDT
Civil Twilight 6:59 AM CDT 8:35 PM CDT
Nautical Twilight 6:21 AM CDT 9:13 PM CDT
Astronomical Twilight 5:41 AM CDT 9:53 PM CDT
Moon 9:29 PM CDT (9/16) 9:48 AM CDT (9/16)
Length of Visible Light 13h 36m
Length of Day
12h 33m
Waning Gibbous, 94% of the Moon is Illuminated
Sep 16
Waning Gibbous
Sep 21
Last Quarter
Sep 28
New
Oct 5
First Quarter
Oct 13
Full

Hourly Weather History & Observations

Time (CDT) Temp. Heat Index Dew Point Humidity Pressure Visibility Wind Dir Wind Speed Gust Speed Precip Events Conditions
12:15 AM 57.2 °F - 57.2 °F 100% 29.75 in 10.0 mi Calm Calm - N/A   Clear
12:35 AM 57.2 °F - 57.2 °F 100% 29.75 in 10.0 mi Calm Calm - N/A   Clear
12:55 AM 59.0 °F - 59.0 °F 100% 29.75 in 10.0 mi Calm Calm - N/A   Clear
1:15 AM 55.4 °F - 55.4 °F 100% 29.75 in 10.0 mi Calm Calm - N/A   Clear
1:35 AM 55.4 °F - 55.4 °F 100% 29.75 in 10.0 mi Calm Calm - N/A   Clear
1:55 AM 53.6 °F - 53.6 °F 100% 29.75 in 10.0 mi Calm Calm - N/A   Mostly Cloudy
2:15 AM 53.6 °F - 53.6 °F 100% 29.75 in 10.0 mi Calm Calm - N/A   Overcast
2:35 AM 53.6 °F - 53.6 °F 100% 29.75 in 10.0 mi Calm Calm - N/A   Overcast
2:55 AM 53.6 °F - 53.6 °F 100% 29.75 in 10.0 mi Calm Calm - N/A   Overcast
3:15 AM 51.8 °F - 51.8 °F 100% 29.75 in 10.0 mi ESE 3.5 mph - N/A   Overcast
3:35 AM 51.8 °F - 51.8 °F 100% 29.74 in 10.0 mi SE 6.9 mph - N/A   Overcast
3:55 AM 53.6 °F - 53.6 °F 100% 29.74 in 9.0 mi SE 4.6 mph - N/A   Overcast
4:15 AM - - - N/A% 29.74 in 9.0 mi ESE 3.5 mph - N/A   Overcast
4:35 AM - - - N/A% 29.73 in 10.0 mi Calm Calm - N/A   Overcast
4:55 AM 51.8 °F - 51.8 °F 100% 29.74 in 8.0 mi Calm Calm - N/A   Overcast
5:15 AM 50.0 °F - 50.0 °F 100% 29.73 in 3.0 mi East 4.6 mph - N/A   Overcast
5:35 AM 50.0 °F - 50.0 °F 100% 29.73 in 3.0 mi Calm Calm - N/A   Overcast
5:55 AM 50.0 °F - 50.0 °F 100% 29.73 in 9.0 mi ESE 4.6 mph - N/A   Overcast
6:35 AM 50.0 °F - 50.0 °F 100% 29.74 in 10.0 mi Calm Calm - N/A   Overcast
6:55 AM 50.0 °F - 50.0 °F 100% 29.74 in 10.0 mi Calm Calm - N/A   Overcast
7:15 AM 50.0 °F - 50.0 °F 100% 29.74 in 5.0 mi Calm Calm - N/A   Mostly Cloudy
7:35 AM 48.2 °F - 48.2 °F 100% 29.74 in 7.0 mi Calm Calm - N/A   Clear
7:55 AM 48.2 °F - 48.2 °F 100% 29.74 in 0.2 mi East 4.6 mph - N/A Fog Fog
8:15 AM 50.0 °F - 50.0 °F 100% 29.74 in 1.5 mi Calm Calm - N/A   Clear
8:55 AM 53.6 °F - 53.6 °F 100% 29.74 in 10.0 mi East 3.5 mph - N/A   Clear
9:15 AM 59.0 °F - 59.0 °F 100% 29.73 in 10.0 mi SE 4.6 mph - N/A   Clear
9:35 AM 64.4 °F - 62.6 °F 94% 29.73 in 10.0 mi East 5.8 mph - N/A   Clear
9:55 AM 66.2 °F - 62.6 °F 88% 29.73 in 10.0 mi East 4.6 mph - N/A   Clear
10:15 AM 71.6 °F - 62.6 °F 73% 29.73 in 10.0 mi East 4.6 mph - N/A   Clear
10:35 AM 73.4 °F - 60.8 °F 65% 29.73 in 10.0 mi ESE 5.8 mph - N/A   Clear
10:55 AM 77.0 °F - 60.8 °F 57% 29.73 in 10.0 mi East 5.8 mph - N/A   Clear
11:15 AM 80.6 °F 81.5 °F 60.8 °F 51% 29.72 in 10.0 mi East 8.1 mph - N/A   Clear
11:35 AM 82.4 °F 82.9 °F 60.8 °F 48% 29.72 in 10.0 mi East 8.1 mph - N/A   Clear
11:55 AM 84.2 °F 83.5 °F 57.2 °F 40% 29.72 in 10.0 mi SE 15.0 mph - N/A   Clear
12:15 PM 84.2 °F 83.5 °F 57.2 °F 40% 29.71 in 10.0 mi SE 15.0 mph - N/A   Clear
12:35 PM 86.0 °F 84.9 °F 57.2 °F 37% 29.71 in 10.0 mi ESE 12.7 mph - N/A   Clear
12:55 PM 86.0 °F 84.9 °F 57.2 °F 37% 29.70 in 10.0 mi SE 12.7 mph - N/A   Clear
1:15 PM 87.8 °F 86.5 °F 57.2 °F 35% 29.70 in 10.0 mi SE 10.4 mph - N/A   Clear
1:35 PM 87.8 °F 86.5 °F 57.2 °F 35% 29.69 in 10.0 mi SE 11.5 mph - N/A   Clear
1:55 PM 87.8 °F 87.1 °F 59.0 °F 38% 29.69 in 10.0 mi SSE 10.4 mph - N/A   Clear
2:15 PM 89.6 °F 88.1 °F 57.2 °F 33% 29.68 in 10.0 mi ESE 10.4 mph - N/A   Clear
2:35 PM 89.6 °F 88.1 °F 57.2 °F 33% 29.67 in 10.0 mi SE 10.4 mph - N/A   Clear
2:55 PM 89.6 °F 88.1 °F 57.2 °F 33% 29.67 in 10.0 mi SE 11.5 mph - N/A   Clear
3:15 PM 89.6 °F 88.1 °F 57.2 °F 33% 29.66 in 9.0 mi SE 11.5 mph 17.3 mph N/A   Clear
3:35 PM 91.4 °F 90.7 °F 59.0 °F 34% 29.65 in 10.0 mi ESE 11.5 mph - N/A   Clear
3:55 PM 91.4 °F 89.9 °F 57.2 °F 31% 29.65 in 10.0 mi SE 12.7 mph - N/A   Clear
4:15 PM 91.4 °F 89.9 °F 57.2 °F 31% 29.65 in 10.0 mi SE 12.7 mph - N/A   Clear
4:35 PM 91.4 °F 90.7 °F 59.0 °F 34% 29.65 in 10.0 mi SE 13.8 mph 19.6 mph N/A   Clear
4:55 PM 91.4 °F 91.4 °F 60.8 °F 36% 29.64 in 9.0 mi SE 13.8 mph - N/A   Clear
5:15 PM 89.6 °F 89.5 °F 60.8 °F 38% 29.64 in 10.0 mi SE 10.4 mph 20.7 mph N/A   Clear
5:35 PM 89.6 °F 88.9 °F 59.0 °F 36% 29.63 in 10.0 mi SE 12.7 mph - N/A   Clear
5:55 PM 89.6 °F 89.5 °F 60.8 °F 38% 29.63 in 10.0 mi SE 12.7 mph - N/A   Clear
6:15 PM 87.8 °F 87.6 °F 60.8 °F 40% 29.63 in 9.0 mi SE 15.0 mph - N/A   Clear
6:35 PM 87.8 °F 88.5 °F 62.6 °F 43% 29.63 in 10.0 mi ESE 12.7 mph 18.4 mph N/A   Clear
6:55 PM 84.2 °F 86.6 °F 66.2 °F 55% 29.63 in 10.0 mi ESE 8.1 mph - N/A   Clear
7:15 PM 82.4 °F 84.6 °F 66.2 °F 58% 29.63 in 8.0 mi East 9.2 mph - N/A   Clear
7:35 PM 77.0 °F - 66.2 °F 69% 29.62 in 9.0 mi East 9.2 mph - N/A   Clear
7:55 PM 73.4 °F - 66.2 °F 78% 29.63 in 9.0 mi ESE 10.4 mph - N/A   Clear
8:15 PM 73.4 °F - 66.2 °F 78% 29.63 in 10.0 mi East 10.4 mph - N/A   Clear
8:35 PM 71.6 °F - 66.2 °F 83% 29.63 in 10.0 mi East 9.2 mph - N/A   Clear
8:55 PM 71.6 °F - 66.2 °F 83% 29.63 in 10.0 mi East 9.2 mph - N/A   Clear
9:15 PM 69.8 °F - 66.2 °F 88% 29.64 in 10.0 mi East 8.1 mph - N/A   Clear
9:35 PM 68.0 °F - 66.2 °F 94% 29.64 in 10.0 mi East 8.1 mph - N/A   Clear
9:55 PM 66.2 °F - 66.2 °F 100% 29.63 in 10.0 mi East 6.9 mph - N/A   Clear
10:35 PM 64.4 °F - 64.4 °F 100% 29.62 in 10.0 mi East 6.9 mph - N/A   Clear
10:55 PM 66.2 °F - 66.2 °F 100% 29.62 in 10.0 mi East 6.9 mph - N/A   Clear
11:15 PM 64.4 °F - 64.4 °F 100% 29.61 in 10.0 mi East 8.1 mph - N/A   Clear
11:35 PM 64.4 °F - 64.4 °F 100% 29.61 in 10.0 mi East 6.9 mph - N/A   Clear
11:55 PM 62.6 °F - 62.6 °F 100% 29.61 in 10.0 mi East 5.8 mph - N/A   Clear